Friday, February 27, 2015, 11:48 AM EST

KDYL, Doylestown Airport

Location: Doylestown, PA, United States Lat: 40.333
Local Time: 11:48 AM EST (16:48 GMT) Lon: -75.117
Time Zone: US/Eastern Elev: 393 ft

Show me the last for .
Show Decoded

2015-02-27 10:54 METAR KDYL 271554Z AUTO 30005KT 10SM CLR M06/M14 A3039 RMK AO2 SLP304 T10611144
                 =
2015-02-27 08:54 METAR KDYL 271354Z AUTO 36006KT 10SM CLR M08/M14 A3037 RMK AO2 SLP297 T10781139
                 =
2015-02-27 07:54 METAR KDYL 271254Z AUTO 01005KT 10SM OVC050 M08/M13 A3034 RMK AO2 SLP286
                 T10831133 =
2015-02-27 06:54 METAR KDYL 271154Z AUTO 36006KT 10SM BKN048 OVC055 M08/M14 A3031 RMK AO2 SLP275
                 60000 T10831139 11067 21083 51034 =
2015-02-27 05:54 METAR KDYL 271054Z AUTO 36005KT 10SM OVC050 M08/M12 A3028 RMK AO2 SNB21E41
                 SLP266 P0000 T10781122 =
2015-02-27 04:54 METAR KDYL 270954Z AUTO 01008KT 10SM FEW040 OVC050 M07/M12 A3024 RMK AO2 SLP252
                 T10721117 =
2015-02-27 03:54 METAR KDYL 270854Z AUTO 36007KT 10SM BKN032 OVC055 M07/M12 A3021 RMK AO2 SLP240
                 T10721117 51020 =
2015-02-27 02:54 METAR KDYL 270754Z AUTO 35005KT 10SM SCT033 OVC060 M07/M11 A3020 RMK AO2 SLP236
                 T10721111 =
2015-02-27 01:54 METAR KDYL 270654Z AUTO 35003KT 10SM OVC060 M07/M11 A3017 RMK AO2 SLP228
                 T10671106 =
2015-02-27 00:54 METAR KDYL 270554Z AUTO 36003KT 10SM CLR M07/M11 A3015 RMK AO2 SLP219 T10721106
                 11044 21072 53013 =
2015-02-26 23:54 METAR KDYL 270454Z AUTO 31003KT 10SM FEW049 M07/M10 A3013 RMK AO2 SLP214
                 T10671100 410221072 =
2015-02-26 22:54 METAR KDYL 270354Z AUTO 00000KT 10SM SCT060 M07/M09 A3012 RMK AO2 SLP211
                 T10721094 =
2015-02-26 21:54 METAR KDYL 270254Z AUTO 00000KT 10SM CLR M07/M09 A3011 RMK AO2 SLP205 T10671094
                 51026 =
2015-02-26 20:54 METAR KDYL 270154Z AUTO 00000KT 10SM SCT090 M06/M09 A3009 RMK AO2 SLP200
                 T10611094 =
2015-02-26 19:54 METAR KDYL 270054Z AUTO 00000KT 10SM CLR M06/M09 A3006 RMK AO2 SLP190 T10561094
                 =
2015-02-26 18:54 METAR KDYL 262354Z AUTO 00000KT 10SM OVC090 M04/M09 A3003 RMK AO2 SLP179
                 T10441094 11022 21044 51022 =
2015-02-26 17:54 METAR KDYL 262254Z AUTO 00000KT 10SM OVC085 M04/M09 A3001 RMK AO2 SLP172
                 T10441094 =
2015-02-26 16:54 METAR KDYL 262154Z AUTO 02006KT 10SM OVC080 M04/M09 A2999 RMK AO2 SLP165
                 T10391094 =
2015-02-26 15:54 METAR KDYL 262054Z AUTO 35004KT 10SM OVC070 M04/M09 A2996 RMK AO2 SLP156
                 T10391094 53020 =
2015-02-26 14:54 METAR KDYL 261954Z AUTO 34007KT 10SM OVC070 M03/M09 A2993 RMK AO2 SLP145
                 T10331089 =
2015-02-26 13:54 METAR KDYL 261854Z AUTO 03008KT 10SM OVC085 M02/M09 A2989 RMK AO2 SLP132
                 T10221089 =
2015-02-26 12:54 METAR KDYL 261754Z AUTO 03009KT 10SM OVC080 M03/M09 A2990 RMK AO2 SLP136 60000
                 T10281089 11028 21056 58022 =
2015-02-26 11:54 METAR KDYL 261654Z AUTO 02006KT 10SM BKN090 M03/M10 A2994 RMK AO2 SNE12 SLP146
                 P0000 T10331100 =

Support USWX by starting your Amazon purchase here.